createdAt,value
2019-04-06T00:00:12.595Z,36.00
2019-04-06T00:02:41.311Z,36.42
2019-04-06T00:05:11.423Z,39.25
2019-04-06T00:07:40.009Z,38.35
2019-04-06T00:10:09.426Z,39.65
2019-04-06T00:12:38.140Z,40.45
2019-04-06T00:15:07.549Z,39.00
2019-04-06T00:17:36.164Z,38.48
2019-04-06T00:20:06.394Z,39.83
2019-04-06T00:22:35.247Z,40.12
2019-04-06T00:25:05.189Z,40.95
2019-04-06T00:27:33.939Z,39.65
2019-04-06T00:30:02.641Z,36.35
2019-04-06T00:32:35.679Z,41.25
2019-04-06T00:35:05.050Z,41.48
2019-04-06T00:37:33.588Z,41.55
2019-04-06T00:40:02.216Z,39.92
2019-04-06T00:42:30.823Z,43.45
2019-04-06T00:44:59.459Z,42.33
2019-04-06T00:47:27.979Z,42.58
2019-04-06T00:49:56.760Z,42.03
2019-04-06T00:52:25.426Z,43.13
2019-04-06T00:54:54.052Z,42.25
2019-04-06T00:57:22.613Z,42.67
2019-04-06T00:59:51.140Z,45.50
2019-04-06T01:02:19.773Z,43.90
2019-04-06T01:04:48.647Z,43.78
2019-04-06T01:07:17.207Z,43.08
2019-04-06T01:09:46.093Z,41.83
2019-04-06T01:12:14.731Z,42.08
2019-04-06T01:14:43.288Z,43.83
2019-04-06T01:17:11.853Z,40.95
2019-04-06T01:19:40.568Z,43.83
2019-04-06T01:22:09.252Z,41.05
2019-04-06T01:24:37.846Z,43.42
2019-04-06T01:27:06.574Z,41.40
2019-04-06T01:29:35.063Z,39.70
2019-04-06T01:32:03.646Z,41.85
2019-04-06T01:34:32.211Z,41.25
2019-04-06T01:37:01.125Z,43.23
2019-04-06T01:39:29.613Z,37.83
2019-04-06T01:41:58.288Z,40.55
2019-04-06T01:44:26.812Z,39.08
2019-04-06T01:46:55.487Z,40.58
2019-04-06T01:49:24.091Z,39.55
2019-04-06T01:51:52.642Z,41.28
2019-04-06T01:54:21.162Z,41.70
2019-04-06T01:56:49.774Z,42.25
2019-04-06T01:59:18.258Z,41.35
2019-04-06T02:02:04.755Z,39.80
2019-04-06T02:04:33.399Z,40.85
2019-04-06T02:07:02.019Z,41.77
2019-04-06T02:09:30.781Z,39.78
2019-04-06T02:11:59.415Z,40.88
2019-04-06T02:14:28.095Z,41.65
2019-04-06T02:16:56.701Z,43.60
2019-04-06T02:19:25.389Z,44.13
2019-04-06T02:21:54.097Z,45.50
2019-04-06T02:24:22.716Z,45.60
2019-04-06T02:26:51.475Z,44.98
2019-04-06T02:29:19.969Z,44.20
2019-04-06T02:31:56.305Z,45.15
2019-04-06T02:34:28.991Z,46.15
2019-04-06T02:37:13.956Z,46.08
2019-04-06T02:39:50.243Z,42.85
2019-04-06T02:42:20.475Z,42.17
2019-04-06T02:44:49.239Z,43.98
2019-04-06T02:47:17.989Z,45.00
2019-04-06T02:49:46.711Z,46.28
2019-04-06T02:52:15.343Z,44.18
2019-04-06T02:54:44.059Z,45.03
2019-04-06T02:57:12.745Z,45.38
2019-04-06T02:59:41.374Z,45.67
2019-04-06T03:02:09.942Z,44.08
2019-04-06T03:04:38.777Z,43.40
2019-04-06T03:07:07.748Z,45.70
2019-04-06T03:09:37.892Z,42.93
2019-04-06T03:12:06.527Z,42.70
2019-04-06T03:14:35.190Z,44.33
2019-04-06T03:17:03.897Z,42.05
2019-04-06T03:19:32.666Z,43.48
2019-04-06T03:22:01.185Z,43.08
2019-04-06T03:24:29.820Z,44.35
2019-04-06T03:27:01.988Z,44.45
2019-04-06T03:29:28.934Z,46.15
2019-04-06T03:31:57.654Z,44.90
2019-04-06T03:34:26.208Z,43.70
2019-04-06T03:36:55.089Z,43.80
2019-04-06T03:39:23.697Z,44.05
2019-04-06T03:41:52.317Z,44.10
2019-04-06T03:44:21.066Z,45.80
2019-04-06T03:46:49.557Z,43.55
2019-04-06T03:49:18.115Z,44.53
2019-04-06T03:51:46.625Z,39.63
2019-04-06T03:54:15.281Z,42.80
2019-04-06T03:56:44.013Z,43.00
2019-04-06T03:59:12.657Z,42.00
2019-04-06T04:01:41.268Z,40.92
2019-04-06T04:04:09.854Z,42.17
2019-04-06T04:06:38.418Z,40.05
2019-04-06T04:09:07.110Z,41.53
2019-04-06T04:11:35.763Z,42.62
2019-04-06T04:14:06.197Z,40.25
2019-04-06T04:16:34.787Z,42.05
2019-04-06T04:19:03.552Z,42.13
2019-04-06T04:21:32.179Z,41.37
2019-04-06T04:24:00.739Z,41.13
2019-04-06T04:26:29.383Z,41.75
2019-04-06T04:28:58.026Z,42.80
2019-04-06T04:31:26.585Z,42.17
2019-04-06T04:33:55.165Z,41.50
2019-04-06T04:36:23.722Z,43.15
2019-04-06T04:38:52.486Z,43.20
2019-04-06T04:41:21.202Z,43.35
2019-04-06T04:43:49.861Z,42.80
2019-04-06T04:46:18.379Z,41.95
2019-04-06T04:48:46.852Z,42.45
2019-04-06T04:51:15.485Z,42.35
2019-04-06T04:53:44.067Z,40.92
2019-04-06T04:56:12.559Z,39.85
2019-04-06T04:58:41.216Z,38.53
2019-04-06T05:01:09.838Z,39.78
2019-04-06T05:03:38.427Z,40.65
2019-04-06T05:06:07.019Z,39.70
2019-04-06T05:08:35.642Z,41.23
2019-04-06T05:11:05.730Z,38.63
2019-04-06T05:13:34.782Z,38.55
2019-04-06T05:16:10.995Z,38.33
2019-04-06T05:18:40.590Z,38.13
2019-04-06T05:21:09.212Z,39.33
2019-04-06T05:23:37.715Z,38.53
2019-04-06T05:26:06.809Z,39.98
2019-04-06T05:28:35.464Z,39.00
2019-04-06T05:31:04.092Z,39.50
2019-04-06T05:33:32.573Z,40.03
2019-04-06T05:36:01.288Z,39.30
2019-04-06T05:38:29.843Z,40.10
2019-04-06T05:40:58.657Z,38.90
2019-04-06T05:43:27.185Z,38.98
2019-04-06T05:45:55.734Z,35.78
2019-04-06T05:48:24.352Z,37.25
2019-04-06T05:50:52.902Z,38.38
2019-04-06T05:53:21.492Z,38.02
2019-04-06T05:55:50.251Z,38.20
2019-04-06T05:58:18.797Z,38.65
2019-04-06T06:00:47.299Z,37.30
2019-04-06T06:03:15.962Z,36.13
2019-04-06T06:05:44.645Z,37.78
2019-04-06T06:08:13.131Z,36.73
2019-04-06T06:10:41.758Z,35.45
2019-04-06T06:13:10.419Z,36.28
2019-04-06T06:15:39.043Z,35.43
2019-04-06T06:18:07.672Z,35.15
2019-04-06T06:20:36.268Z,34.75
2019-04-06T06:23:04.894Z,34.45
2019-04-06T06:25:33.757Z,34.90
2019-04-06T06:28:13.327Z,33.58
2019-04-06T06:30:32.624Z,33.80
2019-04-06T06:33:01.263Z,35.68
2019-04-06T06:35:29.884Z,34.43
2019-04-06T06:37:58.565Z,34.08
2019-04-06T06:40:27.125Z,34.73
2019-04-06T06:42:55.724Z,34.45
2019-04-06T06:45:24.362Z,33.48
2019-04-06T06:47:52.925Z,37.38
2019-04-06T06:50:21.511Z,34.30
2019-04-06T06:52:50.203Z,34.98
2019-04-06T06:55:18.749Z,32.73
2019-04-06T06:57:47.347Z,33.42
2019-04-06T07:00:16.140Z,32.25
2019-04-06T07:02:44.770Z,32.63
2019-04-06T07:05:13.584Z,31.57
2019-04-06T07:07:42.160Z,33.02
2019-04-06T07:10:11.070Z,34.03
2019-04-06T07:12:39.719Z,35.58
2019-04-06T07:15:09.154Z,35.15
2019-04-06T07:17:37.820Z,33.73
2019-04-06T07:20:08.312Z,31.95
2019-04-06T07:22:36.817Z,34.58
2019-04-06T07:25:06.512Z,34.65
2019-04-06T07:27:35.152Z,32.85
2019-04-06T07:30:05.980Z,32.80
2019-04-06T07:32:34.649Z,32.90
2019-04-06T07:35:03.780Z,32.17
2019-04-06T07:37:32.364Z,34.63
2019-04-06T07:40:00.872Z,34.13
2019-04-06T07:42:29.421Z,33.60
2019-04-06T07:44:57.935Z,33.67
2019-04-06T07:47:26.508Z,33.40
2019-04-06T07:49:55.060Z,33.40
2019-04-06T07:52:23.645Z,35.35
2019-04-06T07:54:52.274Z,33.90
2019-04-06T07:57:21.043Z,32.93
2019-04-06T07:59:49.661Z,34.25
2019-04-06T08:02:18.347Z,33.98
2019-04-06T08:04:47.057Z,34.05
2019-04-06T08:07:15.842Z,34.45
2019-04-06T08:09:44.580Z,33.67
2019-04-06T08:12:13.828Z,34.15
2019-04-06T08:14:42.341Z,33.15
2019-04-06T08:17:11.066Z,34.98
2019-04-06T08:19:39.631Z,35.05
2019-04-06T08:22:08.283Z,34.05
2019-04-06T08:24:36.794Z,35.05
2019-04-06T08:27:06.487Z,33.92
2019-04-06T08:29:35.137Z,33.18
2019-04-06T08:32:03.785Z,33.38
2019-04-06T08:34:32.441Z,35.70
2019-04-06T08:37:01.164Z,35.48
2019-04-06T08:39:29.773Z,35.60
2019-04-06T08:41:58.290Z,35.63
2019-04-06T08:44:26.895Z,34.75
2019-04-06T08:46:55.509Z,35.17
2019-04-06T08:49:24.154Z,35.20
2019-04-06T08:51:52.854Z,35.23
2019-04-06T08:54:21.402Z,35.65
2019-04-06T08:56:50.032Z,35.78
2019-04-06T08:59:18.610Z,37.67
2019-04-06T09:01:47.098Z,36.80
2019-04-06T09:04:15.815Z,37.75
2019-04-06T09:06:44.463Z,36.13
2019-04-06T09:09:13.270Z,37.17
2019-04-06T09:11:41.784Z,37.98
2019-04-06T09:14:10.413Z,35.85
2019-04-06T09:16:39.040Z,34.78
2019-04-06T09:19:07.619Z,37.83
2019-04-06T09:21:36.397Z,39.18
2019-04-06T09:24:05.137Z,38.28
2019-04-06T09:26:33.764Z,39.73
2019-04-06T09:29:02.317Z,36.70
2019-04-06T09:31:30.973Z,36.15
2019-04-06T09:33:59.478Z,36.05
2019-04-06T09:36:28.177Z,34.45
2019-04-06T09:38:56.769Z,34.35
2019-04-06T09:41:26.324Z,34.30
2019-04-06T09:43:55.278Z,33.05
2019-04-06T09:46:43.643Z,32.45
2019-04-06T09:49:28.734Z,31.57
2019-04-06T09:51:58.987Z,30.48
2019-04-06T09:54:43.807Z,30.55
2019-04-06T09:57:14.045Z,29.05
2019-04-06T09:59:56.233Z,28.52
2019-04-06T10:02:38.124Z,25.95
2019-04-06T10:05:17.860Z,26.55
2019-04-06T10:07:48.066Z,25.45
2019-04-06T10:10:24.221Z,23.50
2019-04-06T10:12:57.278Z,24.70
2019-04-06T10:15:43.263Z,23.35
2019-04-06T10:18:22.531Z,22.82
2019-04-06T10:21:08.656Z,22.58
2019-04-06T10:23:38.857Z,20.10
2019-04-06T10:26:09.149Z,20.80
2019-04-06T10:28:54.007Z,22.67
2019-04-06T10:31:42.004Z,21.77
2019-04-06T10:34:28.032Z,21.30
2019-04-06T10:36:58.271Z,21.60
2019-04-06T10:39:31.080Z,22.93
2019-04-06T10:42:07.105Z,20.02
2019-04-06T10:44:37.434Z,21.40
2019-04-06T10:47:07.807Z,21.77
2019-04-06T10:49:41.208Z,21.65
2019-04-06T10:52:29.376Z,19.50
2019-04-06T10:55:15.577Z,19.77
2019-04-06T10:57:51.871Z,19.77
2019-04-06T11:00:22.087Z,21.17
2019-04-06T11:03:08.564Z,19.92
2019-04-06T11:05:38.909Z,18.90
2019-04-06T11:08:24.351Z,19.32
2019-04-06T11:11:10.489Z,18.02
2019-04-06T11:13:40.853Z,18.17
2019-04-06T11:16:11.043Z,16.33
2019-04-06T11:18:56.562Z,16.77
2019-04-06T11:21:26.762Z,17.42
2019-04-06T11:23:59.791Z,16.97
2019-04-06T11:26:36.571Z,17.27
2019-04-06T11:29:12.321Z,17.80
2019-04-06T11:31:48.482Z,14.60
2019-04-06T11:34:24.844Z,13.53
2019-04-06T11:37:00.496Z,13.58
2019-04-06T11:39:33.480Z,13.38
2019-04-06T11:42:21.811Z,10.50
2019-04-06T11:44:55.075Z,10.82
2019-04-06T11:47:31.469Z,9.88
2019-04-06T11:50:13.894Z,10.32
2019-04-06T11:52:55.731Z,12.75
2019-04-06T11:55:26.332Z,11.00
2019-04-06T11:58:13.138Z,10.50
2019-04-06T12:00:59.022Z,10.13
2019-04-06T12:03:44.641Z,10.10
2019-04-06T12:06:14.807Z,10.50
2019-04-06T12:09:01.229Z,10.15
2019-04-06T12:11:34.491Z,9.20
2019-04-06T12:14:13.127Z,9.25
2019-04-06T12:16:49.191Z,8.40
2019-04-06T12:19:22.156Z,9.03
2019-04-06T12:22:07.359Z,7.62
2019-04-06T12:24:40.341Z,6.70
2019-04-06T12:27:19.199Z,8.58
2019-04-06T12:29:52.163Z,8.18
2019-04-06T12:32:31.323Z,8.70
2019-04-06T12:35:01.445Z,8.38
2019-04-06T12:37:43.786Z,9.17
2019-04-06T12:40:32.420Z,8.73
2019-04-06T12:43:19.056Z,7.90
2019-04-06T12:45:49.334Z,7.65
2019-04-06T12:48:25.733Z,8.10
2019-04-06T12:51:01.551Z,7.28
2019-04-06T12:53:31.824Z,7.97
2019-04-06T12:56:18.459Z,8.70
2019-04-06T12:58:48.768Z,10.25
2019-04-06T13:01:21.498Z,8.80
2019-04-06T13:03:57.821Z,7.10
2019-04-06T13:06:30.949Z,7.55
2019-04-06T13:09:07.202Z,7.10
2019-04-06T13:11:46.101Z,6.85
2019-04-06T13:14:28.632Z,7.10
2019-04-06T13:17:14.093Z,6.90
2019-04-06T13:20:00.422Z,6.55
2019-04-06T13:22:33.786Z,6.62
2019-04-06T13:25:22.227Z,6.65
2019-04-06T13:27:55.152Z,7.10
2019-04-06T13:30:41.997Z,7.28
2019-04-06T13:33:18.231Z,6.50
2019-04-06T13:35:51.565Z,6.50
2019-04-06T13:38:37.886Z,6.80
2019-04-06T13:41:13.896Z,6.65
2019-04-06T13:43:50.238Z,6.30
2019-04-06T13:46:29.393Z,6.28
2019-04-06T13:48:59.595Z,6.70
2019-04-06T13:51:46.303Z,6.78
2019-04-06T13:54:19.892Z,6.25
2019-04-06T13:57:06.508Z,6.20
2019-04-06T13:59:45.636Z,6.30
2019-04-06T14:02:31.257Z,6.70
2019-04-06T14:05:04.215Z,6.22
2019-04-06T14:07:50.901Z,6.33
2019-04-06T14:10:33.525Z,7.60
2019-04-06T14:13:20.420Z,7.50
2019-04-06T14:15:56.652Z,8.30
2019-04-06T14:18:26.940Z,7.85
2019-04-06T14:21:15.352Z,7.40
2019-04-06T14:24:03.827Z,8.30
2019-04-06T14:26:46.475Z,7.17
2019-04-06T14:29:19.258Z,7.45
2019-04-06T14:32:07.836Z,7.33
2019-04-06T14:34:40.827Z,6.92
2019-04-06T14:37:17.106Z,6.80
2019-04-06T14:39:50.617Z,8.18
2019-04-06T14:42:23.935Z,7.80
2019-04-06T14:45:10.304Z,7.60
2019-04-06T14:47:55.788Z,7.17
2019-04-06T14:50:26.313Z,7.28
2019-04-06T14:52:57.437Z,7.45
2019-04-06T14:55:41.477Z,8.18
2019-04-06T14:58:18.289Z,7.80
2019-04-06T15:00:51.163Z,8.35
2019-04-06T15:03:21.387Z,6.85
2019-04-06T15:05:54.333Z,7.70
2019-04-06T15:08:41.273Z,7.67
2019-04-06T15:11:23.029Z,7.78
2019-04-06T15:13:59.019Z,8.50
2019-04-06T15:16:38.461Z,8.05
2019-04-06T15:19:18.194Z,8.48
2019-04-06T15:21:51.811Z,7.67
2019-04-06T15:24:22.158Z,8.03
2019-04-06T15:27:01.443Z,8.03
2019-04-06T15:29:34.347Z,7.03
2019-04-06T15:32:22.796Z,7.87
2019-04-06T15:35:08.146Z,7.30
2019-04-06T15:37:47.204Z,6.85
2019-04-06T15:40:20.601Z,7.00
2019-04-06T15:42:59.511Z,7.85
2019-04-06T15:45:32.663Z,6.75
2019-04-06T15:48:08.754Z,6.53
2019-04-06T15:50:42.272Z,6.92
2019-04-06T15:53:28.540Z,7.30
2019-04-06T15:56:08.096Z,6.60
2019-04-06T15:58:40.973Z,7.15
2019-04-06T16:01:17.295Z,7.28
2019-04-06T16:03:59.905Z,7.72
2019-04-06T16:06:39.223Z,6.35
2019-04-06T16:09:09.552Z,6.95
2019-04-06T16:11:42.440Z,6.80
2019-04-06T16:14:28.575Z,6.60
2019-04-06T16:16:58.806Z,6.30
2019-04-06T16:19:35.044Z,6.77
2019-04-06T16:22:20.250Z,6.40
2019-04-06T16:24:50.468Z,7.22
2019-04-06T16:27:38.808Z,7.05
2019-04-06T16:30:10.881Z,6.50
2019-04-06T16:32:41.135Z,6.70
2019-04-06T16:35:13.938Z,6.60
2019-04-06T16:38:00.397Z,7.12
2019-04-06T16:40:36.571Z,6.92
2019-04-06T16:43:25.005Z,6.72
2019-04-06T16:46:03.886Z,7.37
2019-04-06T16:48:45.949Z,7.70
2019-04-06T16:51:16.542Z,7.87
2019-04-06T16:54:02.153Z,7.33
2019-04-06T16:56:44.796Z,7.67
2019-04-06T16:59:15.412Z,7.53
2019-04-06T17:01:45.873Z,8.23
2019-04-06T17:04:24.887Z,8.85
2019-04-06T17:07:00.989Z,8.28
2019-04-06T17:09:34.978Z,8.23
2019-04-06T17:12:06.330Z,8.28
2019-04-06T17:14:39.406Z,8.05
2019-04-06T17:17:26.160Z,8.23
2019-04-06T17:19:56.359Z,7.37
2019-04-06T17:22:27.071Z,7.95
2019-04-06T17:25:06.655Z,8.98
2019-04-06T17:27:42.959Z,8.20
2019-04-06T17:30:26.431Z,8.50
2019-04-06T17:33:02.082Z,8.55
2019-04-06T17:35:38.380Z,9.03
2019-04-06T17:38:26.461Z,8.70
2019-04-06T17:41:09.092Z,8.50
2019-04-06T17:43:41.943Z,9.05
2019-04-06T17:46:15.136Z,9.28
2019-04-06T17:48:45.530Z,9.20
2019-04-06T17:51:15.761Z,10.05
2019-04-06T17:53:48.450Z,13.20
2019-04-06T17:56:25.011Z,13.20
2019-04-06T17:59:04.166Z,14.38
2019-04-06T18:01:34.418Z,16.52
2019-04-06T18:04:10.556Z,20.17
2019-04-06T18:06:52.372Z,19.65
2019-04-06T18:09:22.578Z,19.82
2019-04-06T18:11:52.925Z,18.70
2019-04-06T18:14:21.845Z,19.40
2019-04-06T18:16:50.701Z,19.10
2019-04-06T18:19:19.369Z,19.70
2019-04-06T18:21:48.137Z,18.35
2019-04-06T18:24:16.948Z,18.55
2019-04-06T18:26:45.627Z,17.52
2019-04-06T18:29:14.261Z,18.82
2019-04-06T18:31:50.343Z,18.50
2019-04-06T18:34:18.934Z,19.02
2019-04-06T18:36:52.306Z,18.37
2019-04-06T18:39:22.495Z,18.05
2019-04-06T18:41:51.273Z,19.37
2019-04-06T18:44:19.844Z,18.57
2019-04-06T18:46:48.433Z,17.45
2019-04-06T18:49:16.992Z,18.67
2019-04-06T18:51:45.803Z,17.85
2019-04-06T18:54:14.384Z,16.07
2019-04-06T18:56:43.930Z,17.37
2019-04-06T18:59:12.968Z,15.53
2019-04-06T19:01:41.676Z,15.13
2019-04-06T19:04:10.488Z,17.10
2019-04-06T19:06:39.558Z,15.55
2019-04-06T19:09:20.729Z,15.58
2019-04-06T19:11:40.811Z,15.90
2019-04-06T19:14:10.202Z,15.83
2019-04-06T19:16:38.876Z,16.05
2019-04-06T19:19:07.815Z,16.62
2019-04-06T19:21:36.504Z,16.32
2019-04-06T19:24:05.518Z,15.30
2019-04-06T19:26:34.147Z,16.57
2019-04-06T19:29:02.818Z,17.48
2019-04-06T19:31:31.714Z,15.38
2019-04-06T19:34:00.545Z,15.32
2019-04-06T19:36:29.448Z,15.13
2019-04-06T19:38:58.168Z,15.55
2019-04-06T19:41:27.118Z,16.12
2019-04-06T19:43:55.800Z,16.65
2019-04-06T19:46:24.741Z,16.17
2019-04-06T19:48:53.409Z,16.32
2019-04-06T19:51:22.580Z,15.98
2019-04-06T19:53:51.257Z,15.32
2019-04-06T19:56:20.115Z,15.18
2019-04-06T19:58:49.261Z,15.72
2019-04-06T20:01:17.869Z,15.43
2019-04-06T20:03:46.547Z,15.28
2019-04-06T20:06:15.542Z,15.15
2019-04-06T20:08:44.217Z,15.65
2019-04-06T20:11:12.973Z,15.83
2019-04-06T20:13:41.619Z,16.00
2019-04-06T20:16:10.281Z,16.40
2019-04-06T20:18:38.987Z,16.95
2019-04-06T20:21:07.954Z,16.30
2019-04-06T20:23:36.463Z,18.67
2019-04-06T20:26:05.744Z,16.42
2019-04-06T20:28:35.368Z,16.37
2019-04-06T20:31:04.060Z,16.93
2019-04-06T20:33:32.647Z,17.15
2019-04-06T20:36:01.279Z,15.53
2019-04-06T20:38:29.959Z,16.93
2019-04-06T20:40:58.549Z,16.87
2019-04-06T20:43:27.582Z,17.52
2019-04-06T20:45:57.533Z,17.92
2019-04-06T20:48:26.283Z,17.32
2019-04-06T20:50:55.115Z,17.67
2019-04-06T20:53:24.126Z,20.30
2019-04-06T20:55:52.756Z,20.17
2019-04-06T20:58:21.381Z,19.30
2019-04-06T21:00:50.514Z,20.45
2019-04-06T21:03:19.252Z,19.92
2019-04-06T21:05:47.981Z,18.92
2019-04-06T21:08:17.144Z,19.25
2019-04-06T21:10:45.866Z,19.15
2019-04-06T21:13:14.426Z,20.32
2019-04-06T21:15:43.584Z,19.62
2019-04-06T21:18:12.430Z,19.55
2019-04-06T21:20:40.929Z,20.30
2019-04-06T21:23:09.781Z,21.07
2019-04-06T21:25:38.805Z,21.57
2019-04-06T21:28:07.761Z,23.07
2019-04-06T21:30:36.783Z,21.97
2019-04-06T21:33:05.485Z,20.85
2019-04-06T21:35:34.528Z,23.25
2019-04-06T21:38:03.044Z,21.97
2019-04-06T21:40:31.707Z,21.70
2019-04-06T21:43:00.388Z,23.02
2019-04-06T21:45:29.859Z,21.93
2019-04-06T21:47:58.583Z,21.48
2019-04-06T21:50:27.541Z,22.27
2019-04-06T21:52:57.597Z,23.65
2019-04-06T21:55:26.387Z,23.30
2019-04-06T21:57:55.349Z,23.90
2019-04-06T22:00:42.744Z,22.37
2019-04-06T22:03:11.385Z,22.52
2019-04-06T22:05:40.038Z,22.22
2019-04-06T22:08:09.338Z,23.95
2019-04-06T22:10:38.181Z,23.38
2019-04-06T22:13:07.270Z,23.45
2019-04-06T22:15:36.141Z,24.12
2019-04-06T22:18:06.126Z,23.38
2019-04-06T22:20:35.544Z,23.52
2019-04-06T22:23:05.104Z,22.17
2019-04-06T22:25:33.744Z,23.30
2019-04-06T22:28:02.802Z,23.75
2019-04-06T22:30:32.570Z,23.98
2019-04-06T22:33:01.830Z,23.83
2019-04-06T22:35:30.545Z,24.20
2019-04-06T22:37:59.232Z,22.67
2019-04-06T22:40:28.180Z,22.80
2019-04-06T22:42:57.293Z,22.42
2019-04-06T22:45:28.264Z,25.02
2019-04-06T22:47:56.856Z,24.30
2019-04-06T22:50:25.810Z,24.15
2019-04-06T22:52:54.671Z,23.77
2019-04-06T22:55:23.289Z,25.02
2019-04-06T22:57:52.079Z,22.98
2019-04-06T23:00:37.484Z,24.20
2019-04-06T23:03:24.146Z,25.85
2019-04-06T23:05:54.281Z,23.57
2019-04-06T23:08:23.490Z,24.05
2019-04-06T23:10:52.233Z,22.70
2019-04-06T23:13:21.410Z,23.80
2019-04-06T23:15:50.827Z,24.67
2019-04-06T23:18:19.654Z,24.95
2019-04-06T23:20:48.408Z,26.15
2019-04-06T23:23:17.637Z,24.80
2019-04-06T23:25:46.969Z,24.12
2019-04-06T23:28:15.939Z,25.10
2019-04-06T23:30:45.300Z,23.95
2019-04-06T23:33:14.310Z,24.32
2019-04-06T23:35:43.040Z,23.50
2019-04-06T23:38:12.273Z,24.02
2019-04-06T23:40:40.961Z,21.27
2019-04-06T23:43:09.714Z,23.73
2019-04-06T23:45:39.395Z,24.95
2019-04-06T23:48:08.088Z,23.45
2019-04-06T23:50:36.602Z,24.65
2019-04-06T23:53:05.258Z,23.55
2019-04-06T23:55:33.944Z,22.80
2019-04-06T23:58:02.869Z,23.30
